Time;durP1;ratioP1;P1;durP2;ratioP2;P2;SDS_P1;SDS_P2;PMS_P1;PMS_P2;Temp;Humidity;BMP_temperature;BMP_pressure;BME280_temperature;BME280_humidity;BME280_pressure;Samples;Min_cycle;Max_cycle;Signal;HPM_P1;HPM_P2
2023/11/21 00:01:41;;;;;;;16.83;12.43;;;;;;;9.05;100.00;100977.47;5253121;28;20036;-75
2023/11/21 00:04:15;;;;;;;15.80;12.05;;;;;;;8.99;100.00;100987.47;5251851;28;20037;-75
2023/11/21 00:06:47;;;;;;;15.60;11.00;;;;;;;8.94;100.00;100975.69;5252942;28;20091;-75
2023/11/21 00:09:19;;;;;;;15.70;11.98;;;;;;;8.91;100.00;100987.22;5250277;28;20025;-75
2023/11/21 00:11:51;;;;;;;16.92;11.88;;;;;;;8.91;100.00;100984.59;5249439;28;20422;-75
2023/11/21 00:14:23;;;;;;;15.38;11.65;;;;;;;8.83;100.00;100997.41;5252378;28;20032;-75
2023/11/21 00:16:55;;;;;;;14.18;10.75;;;;;;;8.74;100.00;100988.47;5252869;28;20021;-75
2023/11/21 00:19:27;;;;;;;13.02;10.88;;;;;;;8.74;100.00;100990.25;5254803;28;20033;-75
2023/11/21 00:21:59;;;;;;;16.10;10.63;;;;;;;8.60;100.00;100982.59;5253570;28;20061;-75
2023/11/21 00:24:31;;;;;;;13.63;10.20;;;;;;;8.66;100.00;100997.81;5252472;28;20485;-75
2023/11/21 00:27:03;;;;;;;13.82;10.65;;;;;;;8.68;100.00;100993.34;5251453;28;20029;-75
2023/11/21 00:29:35;;;;;;;14.20;10.93;;;;;;;8.53;100.00;100993.53;5252477;28;20115;-75
2023/11/21 00:32:07;;;;;;;15.63;10.10;;;;;;;8.52;100.00;100997.09;5254666;28;20028;-76
2023/11/21 00:34:39;;;;;;;15.35;10.65;;;;;;;8.48;100.00;101000.00;5252773;28;20029;-76
2023/11/21 00:37:11;;;;;;;13.33;10.63;;;;;;;8.49;100.00;100999.09;5253914;28;20037;-75
2023/11/21 00:39:43;;;;;;;14.63;10.38;;;;;;;8.42;100.00;100997.88;5249918;28;20287;-76
2023/11/21 00:42:15;;;;;;;13.75;10.10;;;;;;;8.39;100.00;101000.69;5253371;28;20078;-76
2023/11/21 00:44:47;;;;;;;15.48;9.90;;;;;;;8.32;100.00;101002.88;5252589;28;20042;-76
2023/11/21 00:47:19;;;;;;;12.30;10.20;;;;;;;8.28;100.00;101006.66;5251636;28;20031;-76
2023/11/21 00:49:51;;;;;;;15.25;10.10;;;;;;;8.24;100.00;101003.44;5252402;28;20041;-76
2023/11/21 00:52:23;;;;;;;11.13;9.40;;;;;;;8.23;100.00;101008.78;5252575;28;20448;-75
2023/11/21 00:54:55;;;;;;;14.02;10.15;;;;;;;8.20;100.00;101003.78;5252491;28;20029;-76
2023/11/21 00:57:27;;;;;;;15.23;10.52;;;;;;;8.15;100.00;101005.91;5253426;28;20030;-75
2023/11/21 00:59:58;;;;;;;12.43;9.95;;;;;;;8.14;100.00;101007.66;5250728;28;20112;-76
2023/11/21 01:02:30;;;;;;;12.75;9.38;;;;;;;8.09;100.00;101011.53;5233973;28;20037;-76
2023/11/21 01:05:03;;;;;;;14.05;9.43;;;;;;;8.09;100.00;101011.53;5253692;28;20044;-75
2023/11/21 01:07:36;;;;;;;13.98;9.45;;;;;;;8.05;100.00;101016.97;5251124;28;20489;-76
2023/11/21 01:10:09;;;;;;;15.73;9.85;;;;;;;8.05;100.00;101016.16;5233192;28;20229;-75
2023/11/21 01:12:41;;;;;;;18.42;10.13;;;;;;;8.04;100.00;101015.31;5249250;28;20033;-75
2023/11/21 01:15:13;;;;;;;14.93;10.23;;;;;;;7.99;100.00;101020.03;5253052;28;20035;-76
2023/11/21 01:17:45;;;;;;;15.07;10.57;;;;;;;7.97;100.00;101028.91;5251697;28;20028;-75
2023/11/21 01:20:17;;;;;;;12.88;10.50;;;;;;;7.91;100.00;101035.38;5254218;28;20039;-76
2023/11/21 01:22:49;;;;;;;12.38;10.02;;;;;;;7.92;100.00;101042.28;5251492;28;20050;-76
2023/11/21 01:25:21;;;;;;;11.80;9.50;;;;;;;7.84;100.00;101042.00;5253099;28;20029;-75
2023/11/21 01:27:53;;;;;;;15.07;10.20;;;;;;;7.86;100.00;101040.09;5252879;28;20048;-75
2023/11/21 01:30:25;;;;;;;14.20;10.15;;;;;;;7.86;100.00;101042.69;5250554;28;20043;-75
2023/11/21 01:32:57;;;;;;;25.57;10.37;;;;;;;7.90;100.00;101038.09;5252569;28;20398;-76
2023/11/21 01:35:29;;;;;;;34.17;10.77;;;;;;;7.81;100.00;101031.78;5252599;28;20032;-76
2023/11/21 01:38:01;;;;;;;32.05;10.10;;;;;;;7.86;100.00;101045.31;5250375;28;20029;-76
2023/11/21 01:40:33;;;;;;;40.22;9.93;;;;;;;7.79;100.00;101046.69;5255277;28;20039;-76
2023/11/21 01:43:05;;;;;;;42.80;9.80;;;;;;;7.80;100.00;101049.19;5255825;28;20037;-75
2023/11/21 01:45:37;;;;;;;54.35;10.27;;;;;;;7.82;100.00;101056.91;5255019;28;20036;-76
2023/11/21 01:48:09;;;;;;;41.13;9.40;;;;;;;7.77;100.00;101061.63;5253410;28;20045;-75
2023/11/21 01:50:41;;;;;;;40.38;9.20;;;;;;;7.76;100.00;101052.94;5257738;28;20094;-76
2023/11/21 01:53:13;;;;;;;22.38;8.55;;;;;;;7.80;100.00;101048.34;5254796;28;20520;-76
2023/11/21 01:55:45;;;;;;;48.70;9.10;;;;;;;7.81;100.00;101060.47;5256031;28;20029;-76
2023/11/21 01:58:17;;;;;;;43.67;9.30;;;;;;;7.81;100.00;101063.06;5254442;28;20769;-76
2023/11/21 02:00:50;;;;;;;31.80;9.32;;;;;;;7.80;100.00;101064.00;5253668;28;20037;-75
2023/11/21 02:03:22;;;;;;;43.05;9.40;;;;;;;7.82;100.00;101067.34;5234909;28;20044;-76
2023/11/21 02:05:54;;;;;;;49.88;9.63;;;;;;;7.77;100.00;101057.22;5257215;28;20128;-76
2023/11/21 02:08:26;;;;;;;32.75;9.95;;;;;;;7.78;100.00;101060.66;5238505;28;20037;-75
2023/11/21 02:10:58;;;;;;;26.52;9.32;;;;;;;7.77;100.00;101061.63;5252915;28;20041;-75
2023/11/21 02:13:30;;;;;;;45.65;10.07;;;;;;;7.76;100.00;101065.16;5255941;28;20032;-75
2023/11/21 02:16:05;;;;;;;26.38;8.73;;;;;;;7.77;100.00;101064.22;5255520;28;20039;-76
2023/11/21 02:18:36;;;;;;;34.15;10.00;;;;;;;7.78;100.00;101068.50;5252788;28;20032;-75
2023/11/21 02:21:10;;;;;;;27.48;9.32;;;;;;;7.79;100.00;101072.75;5255421;28;20509;-75
2023/11/21 02:23:44;;;;;;;40.28;10.05;;;;;;;7.82;100.00;101079.53;5253801;28;20028;-75
2023/11/21 02:26:16;;;;;;;27.88;9.07;;;;;;;7.82;100.00;101079.53;5254159;28;20032;-75
2023/11/21 02:28:48;;;;;;;35.17;8.90;;;;;;;7.78;100.00;101086.75;5254883;28;20221;-76
2023/11/21 02:31:20;;;;;;;28.27;9.45;;;;;;;7.75;100.00;101085.19;5257115;28;20561;-76
2023/11/21 02:33:52;;;;;;;38.58;9.05;;;;;;;7.72;100.00;101092.38;5254153;28;20472;-76
2023/11/21 02:36:24;;;;;;;28.00;8.57;;;;;;;7.68;100.00;101099.56;5254639;28;20033;-76
2023/11/21 02:38:57;;;;;;;29.05;8.57;;;;;;;7.75;100.00;101100.81;5254687;28;20105;-75
2023/11/21 02:41:29;;;;;;;20.02;8.30;;;;;;;7.72;100.00;101094.97;5255289;28;20517;-76
2023/11/21 02:44:01;;;;;;;23.80;8.52;;;;;;;7.70;100.00;101096.88;5253515;28;20036;-76
2023/11/21 02:46:34;;;;;;;30.65;8.98;;;;;;;7.72;100.00;101090.59;5255358;28;20037;-77
2023/11/21 02:49:06;;;;;;;20.48;9.00;;;;;;;7.71;100.00;101098.53;5252765;28;20033;-76
2023/11/21 02:51:38;;;;;;;25.08;9.32;;;;;;;7.73;100.00;101102.72;5251993;28;20521;-76
2023/11/21 02:54:11;;;;;;;16.13;8.10;;;;;;;7.66;100.00;101098.88;5253353;28;20036;-76
2023/11/21 02:56:43;;;;;;;20.67;8.33;;;;;;;7.70;100.00;101099.50;5251059;28;20037;-76
2023/11/21 02:59:15;;;;;;;20.33;8.30;;;;;;;7.66;100.00;101098.03;5249918;28;20032;-76
2023/11/21 03:01:49;;;;;;;26.47;8.30;;;;;;;7.67;100.00;101094.47;5253103;28;20040;-76
2023/11/21 03:04:21;;;;;;;22.40;8.60;;;;;;;7.65;100.00;101096.34;5254065;28;20041;-76
2023/11/21 03:06:53;;;;;;;17.48;8.85;;;;;;;7.64;100.00;101098.13;5253854;28;20027;-76
2023/11/21 03:09:26;;;;;;;20.20;8.80;;;;;;;7.67;100.00;101104.91;5249985;28;20029;-76
2023/11/21 03:11:58;;;;;;;22.38;8.38;;;;;;;7.61;100.00;101084.44;5252784;28;20040;-76
2023/11/21 03:14:30;;;;;;;24.85;8.38;;;;;;;7.65;100.00;101098.94;5253210;28;20025;-76
2023/11/21 03:17:04;;;;;;;21.38;9.25;;;;;;;7.64;100.00;101100.72;5253656;28;20029;-76
2023/11/21 03:19:36;;;;;;;12.20;9.13;;;;;;;7.66;100.00;101098.88;5255418;28;20041;-76
2023/11/21 03:22:08;;;;;;;18.60;8.52;;;;;;;7.62;100.00;101088.75;5227523;28;20163;-76
2023/11/21 03:24:40;;;;;;;15.02;8.77;;;;;;;7.64;100.00;101102.50;5253394;28;20043;-76
2023/11/21 03:27:12;;;;;;;19.90;8.90;;;;;;;7.65;100.00;101104.16;5254893;28;20108;-76
2023/11/21 03:29:45;;;;;;;18.63;9.23;;;;;;;7.56;100.00;101105.63;5254163;28;20035;-76
2023/11/21 03:32:16;;;;;;;19.17;9.18;;;;;;;7.64;100.00;101105.94;5253654;28;20039;-76
2023/11/21 03:34:57;;;;;;;19.75;8.63;;;;;;;7.73;100.00;101110.53;5253773;28;20032;-76
2023/11/21 03:37:29;;;;;;;28.02;9.27;;;;;;;7.57;100.00;101112.50;5252721;28;20028;-76
2023/11/21 03:40:03;;;;;;;13.65;9.25;;;;;;;7.52;100.00;101112.00;5252246;28;20040;-76
2023/11/21 03:42:35;;;;;;;19.35;9.55;;;;;;;7.54;100.00;101116.19;5251241;28;20036;-76
2023/11/21 03:45:08;;;;;;;16.30;9.45;;;;;;;7.43;100.00;101123.88;5254081;28;20029;-76
2023/11/21 03:47:43;;;;;;;12.77;9.43;;;;;;;7.57;100.00;101121.16;5253373;28;20055;-76
2023/11/21 03:50:15;;;;;;;15.55;8.75;;;;;;;7.45;100.00;101118.56;5249393;28;20036;-76
2023/11/21 03:52:47;;;;;;;18.02;10.45;;;;;;;7.46;100.00;101121.09;5253220;28;20041;-76
2023/11/21 03:55:18;;;;;;;19.50;9.93;;;;;;;7.49;100.00;101126.06;5250562;28;20020;-76
2023/11/21 03:57:51;;;;;;;26.35;10.32;;;;;;;7.50;100.00;101129.50;5253303;28;20508;-76
2023/11/21 04:00:23;;;;;;;21.67;9.73;;;;;;;7.49;100.00;101128.66;5254162;28;20032;-76
2023/11/21 04:02:55;;;;;;;36.30;11.20;;;;;;;7.56;100.00;101135.16;5253882;28;20040;-76
2023/11/21 04:05:27;;;;;;;22.13;10.60;;;;;;;7.55;100.00;101137.88;5254078;28;20033;-76
2023/11/21 04:07:59;;;;;;;33.38;11.68;;;;;;;7.52;100.00;101136.28;5251269;28;20037;-76
2023/11/21 04:10:32;;;;;;;26.40;11.55;;;;;;;7.55;100.00;101125.66;5249359;28;20059;-76
2023/11/21 04:13:05;;;;;;;13.45;10.55;;;;;;;7.60;100.00;101140.16;5253293;28;20039;-76
2023/11/21 04:15:38;;;;;;;27.83;11.90;;;;;;;7.60;100.00;101150.59;5253865;28;20029;-76
2023/11/21 04:18:10;;;;;;;23.50;11.68;;;;;;;7.64;100.00;101146.84;5254186;28;20363;-76
2023/11/21 04:20:42;;;;;;;13.80;10.40;;;;;;;7.70;100.00;101155.09;5254762;28;20058;-76
2023/11/21 04:23:14;;;;;;;14.13;11.15;;;;;;;7.72;100.00;101158.41;5253501;28;20048;-76
2023/11/21 04:25:45;;;;;;;18.42;11.75;;;;;;;7.75;100.00;101160.81;5254487;28;20098;-76
2023/11/21 04:28:18;;;;;;;12.77;11.43;;;;;;;7.78;100.00;101168.44;5255280;28;20027;-76
2023/11/21 04:30:50;;;;;;;12.90;11.50;;;;;;;7.85;100.00;101171.47;5252440;28;20029;-76
2023/11/21 04:33:22;;;;;;;14.25;12.13;;;;;;;7.83;100.00;101170.72;5254491;28;20437;-76
2023/11/21 04:35:54;;;;;;;13.07;11.77;;;;;;;7.86;100.00;101178.34;5255216;28;20025;-76
2023/11/21 04:38:26;;;;;;;13.45;12.13;;;;;;;7.87;100.00;101182.63;5251136;28;20412;-76
2023/11/21 04:40:58;;;;;;;12.13;10.93;;;;;;;7.89;100.00;101185.97;5249759;28;20032;-76
2023/11/21 04:43:30;;;;;;;13.23;11.73;;;;;;;7.89;100.00;101182.53;5251107;28;20025;-76
2023/11/21 04:46:02;;;;;;;11.80;10.60;;;;;;;7.94;100.00;101183.88;5254010;28;20059;-76
2023/11/21 04:48:34;;;;;;;11.63;10.50;;;;;;;7.98;100.00;101181.88;5252968;28;20013;-76
2023/11/21 04:51:06;;;;;;;11.77;10.52;;;;;;;7.97;100.00;101185.44;5253090;28;20035;-76
2023/11/21 04:53:39;;;;;;;17.27;11.10;;;;;;;8.00;100.00;101187.84;5254486;28;20033;-76
2023/11/21 04:56:11;;;;;;;12.52;10.73;;;;;;;8.02;100.00;101191.16;5255604;28;20486;-76
2023/11/21 04:58:43;;;;;;;11.43;10.27;;;;;;;7.96;100.00;101179.41;5251147;28;20031;-76
2023/11/21 05:01:15;;;;;;;14.25;10.48;;;;;;;8.00;100.00;101188.69;5255716;28;20039;-76
2023/11/21 05:03:47;;;;;;;11.90;10.70;;;;;;;7.98;100.00;101187.94;5253926;28;20025;-76
2023/11/21 05:06:19;;;;;;;11.32;10.15;;;;;;;8.03;100.00;101196.31;5253981;28;20029;-76
2023/11/21 05:08:50;;;;;;;12.10;10.55;;;;;;;8.09;100.00;101196.81;5254109;28;20028;-76
2023/11/21 05:11:24;;;;;;;13.85;10.80;;;;;;;8.09;100.00;101195.03;5251169;28;20033;-76
2023/11/21 05:13:58;;;;;;;14.95;11.57;;;;;;;8.10;100.00;101190.66;5253924;28;20025;-76
2023/11/21 05:16:30;;;;;;;13.60;11.32;;;;;;;8.11;100.00;101197.56;5257607;28;20031;-76
2023/11/21 05:19:02;;;;;;;13.05;11.13;;;;;;;8.13;100.00;101206.94;5259069;28;20020;-76
2023/11/21 05:21:33;;;;;;;14.20;11.07;;;;;;;8.13;100.00;101206.09;5259338;28;20049;-76
2023/11/21 05:24:06;;;;;;;12.40;10.82;;;;;;;8.18;100.00;101209.22;5258094;28;20033;-77
2023/11/21 05:26:38;;;;;;;15.00;11.68;;;;;;;8.15;100.00;101214.66;5258280;28;20032;-76
2023/11/21 05:29:10;;;;;;;15.80;12.07;;;;;;;8.23;100.00;101214.97;5258005;28;20470;-76
2023/11/21 05:31:42;;;;;;;13.40;11.95;;;;;;;8.23;100.00;101218.41;5255112;28;20283;-76
2023/11/21 05:34:15;;;;;;;17.45;12.25;;;;;;;8.26;100.00;101223.44;5257063;28;20617;-76
2023/11/21 05:36:47;;;;;;;18.67;12.40;;;;;;;8.31;100.00;101233.53;5258466;28;20033;-76
2023/11/21 05:39:19;;;;;;;19.00;12.57;;;;;;;8.29;100.00;101224.97;5255396;28;20035;-76
2023/11/21 05:41:51;;;;;;;18.37;12.97;;;;;;;8.35;100.00;101242.00;5258098;28;20040;-76
2023/11/21 05:44:23;;;;;;;18.10;12.68;;;;;;;8.36;100.00;101246.28;5257836;28;20279;-77
2023/11/21 05:46:55;;;;;;;20.20;13.02;;;;;;;8.38;100.00;101247.06;5256892;28;20020;-76
2023/11/21 05:49:27;;;;;;;24.27;13.93;;;;;;;8.37;100.00;101241.00;5255652;28;20028;-76
2023/11/21 05:51:59;;;;;;;23.45;14.30;;;;;;;8.42;100.00;101245.91;5257580;28;20037;-76
2023/11/21 05:54:32;;;;;;;27.17;13.97;;;;;;;8.47;100.00;101247.22;5259291;28;20035;-76
2023/11/21 05:57:04;;;;;;;27.85;15.48;;;;;;;8.48;100.00;101256.72;5257222;28;20394;-76
2023/11/21 05:59:36;;;;;;;28.52;14.57;;;;;;;8.46;100.00;101253.41;5257782;28;20032;-76
2023/11/21 06:02:08;;;;;;;25.45;14.38;;;;;;;8.45;100.00;101262.19;5255066;28;20029;-76
2023/11/21 06:04:39;;;;;;;35.08;15.10;;;;;;;8.45;100.00;101267.41;5258059;28;20029;-77
2023/11/21 06:07:11;;;;;;;25.27;14.98;;;;;;;8.48;100.00;101268.94;5240329;28;20032;-76
2023/11/21 06:09:44;;;;;;;29.10;15.93;;;;;;;8.49;100.00;101265.41;5257230;28;20502;-77
2023/11/21 06:12:16;;;;;;;27.70;15.60;;;;;;;8.55;100.00;101274.59;5255120;28;20035;-77
2023/11/21 06:14:48;;;;;;;40.83;16.33;;;;;;;8.55;100.00;101269.38;5253586;28;20458;-76
2023/11/21 06:17:20;;;;;;;28.65;15.63;;;;;;;8.59;100.00;101268.22;5252659;28;20429;-77
2023/11/21 06:19:52;;;;;;;40.50;17.15;;;;;;;8.62;100.00;101271.44;5250567;28;20033;-76
2023/11/21 06:22:24;;;;;;;33.30;16.20;;;;;;;8.67;100.00;101277.16;5253809;28;20520;-76
2023/11/21 06:24:56;;;;;;;31.00;16.75;;;;;;;8.64;100.00;101289.63;5254827;28;20040;-76
2023/11/21 06:27:29;;;;;;;28.45;15.95;;;;;;;8.67;100.00;101284.19;5253240;28;20201;-76
2023/11/21 06:30:01;;;;;;;36.05;16.38;;;;;;;8.69;100.00;101288.38;5253094;28;20021;-77
2023/11/21 06:32:33;;;;;;;42.17;17.08;;;;;;;8.68;100.00;101286.69;5255008;28;20037;-76
2023/11/21 06:35:06;;;;;;;37.00;16.98;;;;;;;8.69;100.00;101295.38;5252088;28;20027;-76
2023/11/21 06:37:38;;;;;;;41.08;15.98;;;;;;;8.74;100.00;101288.88;5251204;28;20029;-76
2023/11/21 06:40:10;;;;;;;37.60;16.13;;;;;;;8.67;100.00;101287.63;5253979;28;20029;-76
2023/11/21 06:42:44;;;;;;;42.03;16.23;;;;;;;8.76;100.00;101296.63;5251790;28;20466;-76
2023/11/21 06:45:16;;;;;;;43.08;16.45;;;;;;;8.77;100.00;101299.09;5250018;28;20064;-76
2023/11/21 06:47:48;;;;;;;38.95;17.25;;;;;;;8.83;100.00;101300.47;5250483;28;20039;-76
2023/11/21 06:50:21;;;;;;;56.00;17.52;;;;;;;8.79;100.00;101296.41;5250394;28;20490;-76
2023/11/21 06:52:53;;;;;;;30.00;16.65;;;;;;;8.84;100.00;101303.91;5251368;28;20029;-76
2023/11/21 06:55:25;;;;;;;39.63;17.30;;;;;;;8.87;100.00;101311.53;5253219;28;20029;-76
2023/11/21 06:57:57;;;;;;;33.97;17.10;;;;;;;8.86;100.00;101310.69;5256011;28;20033;-76
2023/11/21 07:00:29;;;;;;;41.25;17.02;;;;;;;8.81;100.00;101299.72;5252408;28;20037;-76
2023/11/21 07:03:01;;;;;;;38.15;17.98;;;;;;;8.90;100.00;101325.22;5252668;28;20035;-76
2023/11/21 07:05:33;;;;;;;44.53;17.88;;;;;;;8.91;100.00;101319.06;5252906;28;20089;-76
2023/11/21 07:08:05;;;;;;;34.83;17.15;;;;;;;8.89;100.00;101315.69;5250481;28;20370;-77
2023/11/21 07:10:37;;;;;;;42.53;17.77;;;;;;;8.92;100.00;101322.50;5254659;28;20359;-76
2023/11/21 07:13:12;;;;;;;43.45;18.77;;;;;;;8.90;100.00;101309.56;5254011;28;20414;-76
2023/11/21 07:15:44;;;;;;;37.42;17.35;;;;;;;8.97;100.00;101330.84;5254571;28;20035;-76
2023/11/21 07:18:16;;;;;;;33.65;16.50;;;;;;;8.98;100.00;101335.16;5246002;28;20018;-76
2023/11/21 07:20:47;;;;;;;34.97;17.40;;;;;;;8.97;100.00;101339.50;5246399;28;20029;-76
2023/11/21 07:23:21;;;;;;;38.28;18.27;;;;;;;9.01;100.00;101353.19;5243554;28;20041;-77
2023/11/21 07:25:53;;;;;;;;;;;;;;;9.70;100.00;101351.75;5244570;28;20040;-77
2023/11/21 07:28:25;;;;;;;32.25;16.45;;;;;;;9.12;100.00;101355.06;5238130;28;19920;-76
2023/11/21 07:30:57;;;;;;;33.53;16.88;;;;;;;9.13;100.00;101360.22;5251505;28;20041;-76
2023/11/21 07:33:29;;;;;;;33.05;17.10;;;;;;;9.14;100.00;101374.09;5250619;28;20399;-76
2023/11/21 07:36:01;;;;;;;35.85;16.40;;;;;;;9.13;100.00;101375.03;5232971;28;20058;-76
2023/11/21 07:38:33;;;;;;;32.40;16.27;;;;;;;9.14;100.00;101379.34;5247916;28;20063;-76
2023/11/21 07:41:07;;;;;;;33.38;16.00;;;;;;;9.14;100.00;101374.09;5251276;28;20121;-77
2023/11/21 07:43:39;;;;;;;37.30;16.92;;;;;;;9.18;100.00;101388.63;5250745;28;20634;-77
2023/11/21 07:46:14;;;;;;;35.42;17.23;;;;;;;9.20;100.00;101386.72;5247451;28;20057;-77
2023/11/21 07:48:46;;;;;;;34.03;16.75;;;;;;;9.23;100.00;101384.72;5246636;28;20021;-76
2023/11/21 07:51:18;;;;;;;31.30;16.48;;;;;;;9.21;100.00;101372.72;5245336;28;20037;-76
2023/11/21 07:53:50;;;;;;;30.20;17.08;;;;;;;9.25;100.00;101379.41;5244027;28;20033;-77
2023/11/21 07:56:22;;;;;;;37.15;17.13;;;;;;;9.30;100.00;101389.53;5241656;28;20029;-76
2023/11/21 07:58:54;;;;;;;27.88;16.23;;;;;;;9.32;100.00;101388.50;5235877;28;20041;-77
2023/11/21 08:01:27;;;;;;;28.38;16.00;;;;;;;9.35;100.00;101388.25;5240490;28;20033;-77
2023/11/21 08:04:03;;;;;;;29.55;16.38;;;;;;;9.35;100.00;101384.81;5251078;28;20037;-76
2023/11/21 08:06:35;;;;;;;30.90;16.70;;;;;;;9.39;100.00;101389.72;5251016;28;20056;-76
2023/11/21 08:09:08;;;;;;;33.38;17.08;;;;;;;9.40;100.00;101399.25;5247627;28;20024;-76
2023/11/21 08:11:40;;;;;;;30.42;16.40;;;;;;;9.40;100.00;101393.19;5246560;28;20032;-77
2023/11/21 08:14:12;;;;;;;30.13;16.67;;;;;;;9.43;100.00;101401.66;5229762;28;20051;-77
2023/11/21 08:16:44;;;;;;;28.90;16.25;;;;;;;9.47;100.00;101410.94;5245887;28;20036;-77
2023/11/21 08:19:18;;;;;;;28.88;16.25;;;;;;;9.52;100.00;101408.00;5246450;28;20036;-76
2023/11/21 08:21:49;;;;;;;27.73;16.10;;;;;;;9.54;100.00;101410.50;5246115;28;20572;-76
2023/11/21 08:24:21;;;;;;;26.40;15.63;;;;;;;9.54;100.00;101418.34;5247844;28;20041;-77
2023/11/21 08:26:54;;;;;;;29.73;17.10;;;;;;;9.57;100.00;101420.75;5243385;28;20041;-77
2023/11/21 08:29:26;;;;;;;30.75;17.73;;;;;;;9.61;100.00;101417.78;5250795;28;20481;-77
2023/11/21 08:31:59;;;;;;;29.92;17.27;;;;;;;9.66;100.00;101425.31;5248969;28;20032;-77
2023/11/21 08:34:31;;;;;;;;;;;;;;;10.33;100.00;101427.44;5239820;28;20045;-77
2023/11/21 08:37:03;;;;;;;23.50;15.18;;;;;;;9.78;100.00;101436.69;5248828;28;19952;-77
2023/11/21 08:39:37;;;;;;;26.63;15.73;;;;;;;9.82;100.00;101441.59;5243832;28;20048;-76
2023/11/21 08:42:09;;;;;;;24.42;15.32;;;;;;;9.78;100.00;101445.38;5231406;28;20041;-77
2023/11/21 08:44:41;;;;;;;27.05;16.90;;;;;;;9.86;100.00;101440.44;5247252;28;20359;-77
2023/11/21 08:47:13;;;;;;;22.58;15.20;;;;;;;9.84;100.00;101454.56;5246634;28;20033;-76
2023/11/21 08:49:45;;;;;;;23.33;16.75;;;;;;;9.82;100.00;101457.28;5237902;28;20036;-77
2023/11/21 08:52:17;;;;;;;20.17;14.98;;;;;;;9.91;100.00;101456.63;5247825;28;20351;-77
2023/11/21 08:54:55;;;;;;;22.60;16.00;;;;;;;9.88;100.00;101456.00;5242902;28;20035;-77
2023/11/21 08:57:27;;;;;;;24.70;15.32;;;;;;;9.93;100.00;101454.75;5246598;28;20025;-77
2023/11/21 08:59:59;;;;;;;21.23;15.70;;;;;;;9.96;100.00;101453.66;5249237;28;20472;-77
2023/11/21 09:02:31;;;;;;;22.23;15.10;;;;;;;9.95;100.00;101452.00;5251757;28;20518;-77
2023/11/21 09:05:05;;;;;;;24.40;15.50;;;;;;;10.00;100.00;101457.75;5246789;28;20037;-76
2023/11/21 09:07:38;;;;;;;23.98;14.90;;;;;;;10.05;100.00;101454.81;5239273;28;21115;-76
2023/11/21 09:10:10;;;;;;;;;;;;;;;10.82;100.00;101452.56;5241026;28;20025;-76
2023/11/21 09:12:43;;;;;;;19.55;15.30;;;;;;;10.12;100.00;101435.09;5243331;28;19947;-77
2023/11/21 09:15:14;;;;;;;22.47;15.50;;;;;;;10.24;100.00;101460.34;5248961;28;20047;-76
2023/11/21 09:17:47;;;;;;;20.92;16.30;;;;;;;10.28;100.00;101467.06;5249332;28;20033;-76
2023/11/21 09:20:22;;;;;;;26.85;17.88;;;;;;;10.32;100.00;101459.81;5246055;28;20044;-76
2023/11/21 09:22:55;;;;;;;23.73;16.15;;;;;;;10.30;100.00;101470.41;5249898;28;20056;-76
2023/11/21 09:25:28;;;;;;;23.85;16.65;;;;;;;10.39;100.00;101482.00;5249000;28;21220;-76
2023/11/21 09:28:00;;;;;;;;;;;;;;;11.03;100.00;101489.44;5242066;28;20410;-77
2023/11/21 09:30:32;;;;;;;23.80;16.85;;;;;;;10.49;100.00;101485.59;5249968;28;19917;-76
2023/11/21 09:33:07;;;;;;;26.52;17.17;;;;;;;10.44;100.00;101477.25;5242777;28;20382;-76
2023/11/21 09:35:39;;;;;;;27.15;16.75;;;;;;;10.51;100.00;101499.41;5242581;28;20433;-76
2023/11/21 09:38:11;;;;;;;27.52;17.63;;;;;;;10.54;100.00;101503.59;5247625;28;20036;-76
2023/11/21 09:40:43;;;;;;;25.60;19.40;;;;;;;10.61;100.00;101502.22;5228398;28;20359;-77
2023/11/21 09:43:18;;;;;;;26.63;18.20;;;;;;;10.72;100.00;101504.88;5243747;28;20033;-76
2023/11/21 09:45:59;;;;;;;28.80;18.50;;;;;;;10.78;100.00;101514.88;5246059;28;20060;-77
2023/11/21 09:48:33;;;;;;;26.70;17.08;;;;;;;10.75;100.00;101519.50;5248105;28;20035;-76
2023/11/21 09:51:05;;;;;;;21.20;16.70;;;;;;;10.82;100.00;101520.72;5251099;28;20740;-76
2023/11/21 09:53:37;;;;;;;26.77;16.97;;;;;;;10.88;100.00;101521.09;5250083;28;20033;-76
2023/11/21 09:56:10;;;;;;;23.02;16.67;;;;;;;10.87;100.00;101523.81;5251081;28;20284;-76
2023/11/21 09:58:42;;;;;;;21.23;15.80;;;;;;;11.01;100.00;101521.00;5248157;28;20043;-77
2023/11/21 10:01:16;;;;;;;24.90;16.75;;;;;;;11.13;100.00;101530.56;5252274;28;20294;-77
2023/11/21 10:03:49;;;;;;;26.90;16.42;;;;;;;11.14;100.00;101532.25;5250452;28;20029;-77
2023/11/21 10:06:22;;;;;;;22.60;16.52;;;;;;;11.22;100.00;101529.03;5248376;28;20055;-77
2023/11/21 10:08:58;;;;;;;24.70;16.20;;;;;;;11.32;100.00;101540.47;5249286;28;20390;-77
2023/11/21 10:11:31;;;;;;;26.95;17.23;;;;;;;11.42;100.00;101535.38;5247901;28;20029;-77
2023/11/21 10:14:04;;;;;;;21.25;17.25;;;;;;;11.53;100.00;101545.88;5249735;28;20036;-77
2023/11/21 10:16:38;;;;;;;23.88;17.02;;;;;;;11.69;100.00;101542.88;5249719;28;20044;-77
2023/11/21 10:19:10;;;;;;;21.85;16.70;;;;;;;11.74;100.00;101543.34;5251125;28;20044;-77
2023/11/21 10:21:42;;;;;;;21.35;16.48;;;;;;;11.78;100.00;101557.91;5251247;28;20052;-77
2023/11/21 10:24:15;;;;;;;25.05;17.25;;;;;;;11.79;100.00;101554.34;5245172;28;20438;-76
2023/11/21 10:26:48;;;;;;;20.67;16.45;;;;;;;11.83;100.00;101553.16;5249914;28;20147;-77
2023/11/21 10:29:21;;;;;;;;;;;;;;;12.45;100.00;101551.69;5250157;28;20036;-77
2023/11/21 10:31:54;;;;;;;23.00;14.75;;;;;;;11.83;100.00;101558.41;5239995;28;19932;-77
2023/11/21 10:34:27;;;;;;;20.40;15.57;;;;;;;11.82;100.00;101553.22;5248304;28;20031;-77
2023/11/21 10:37:11;;;;;;;22.02;15.32;;;;;;;12.03;100.00;101562.06;5248904;28;20037;-77
2023/11/21 10:39:43;;;;;;;19.60;15.15;;;;;;;11.80;100.00;101556.00;5249251;28;20043;-76
2023/11/21 10:42:18;;;;;;;19.33;15.25;;;;;;;11.96;100.00;101554.81;5253746;28;20025;-77
2023/11/21 10:44:50;;;;;;;19.25;15.60;;;;;;;11.89;100.00;101568.44;5255058;28;20040;-77
2023/11/21 10:47:23;;;;;;;18.48;15.85;;;;;;;11.94;100.00;101568.06;5245771;28;20064;-77
2023/11/21 10:49:54;;;;;;;22.02;15.60;;;;;;;12.00;100.00;101569.38;5249878;28;20029;-77
2023/11/21 10:52:27;;;;;;;20.60;15.73;;;;;;;11.96;100.00;101565.31;5253081;28;20115;-76
2023/11/21 10:54:59;;;;;;;17.40;14.65;;;;;;;12.04;100.00;101569.00;5254416;28;20042;-76
2023/11/21 10:57:31;;;;;;;17.45;13.48;;;;;;;11.97;100.00;101570.47;5248719;28;20039;-77
2023/11/21 11:00:04;;;;;;;19.05;13.82;;;;;;;12.04;100.00;101574.25;5251200;28;20044;-76
2023/11/21 11:02:36;;;;;;;17.45;14.20;;;;;;;12.10;100.00;101572.94;5251778;28;20029;-76
2023/11/21 11:05:11;;;;;;;17.02;14.38;;;;;;;12.05;100.00;101575.94;5254573;28;20508;-77
2023/11/21 11:07:47;;;;;;;16.08;12.80;;;;;;;12.02;100.00;101568.31;5248222;28;20041;-77
2023/11/21 11:10:20;;;;;;;16.60;12.55;;;;;;;12.03;100.00;101583.09;5249058;28;20748;-78
2023/11/21 11:12:57;;;;;;;16.52;13.27;;;;;;;12.20;100.00;101578.28;5243839;28;20033;-79
2023/11/21 11:15:29;;;;;;;16.42;13.30;;;;;;;12.13;100.00;101585.84;5230028;28;20484;-77
2023/11/21 11:18:04;;;;;;;16.38;13.38;;;;;;;12.10;100.00;101580.81;5246638;28;20498;-77
2023/11/21 11:20:39;;;;;;;16.60;12.98;;;;;;;12.16;100.00;101593.47;5251368;28;20056;-77
2023/11/21 11:23:34;;;;;;;14.55;12.77;;;;;;;12.35;100.00;101598.94;5248066;28;20041;-77
2023/11/21 11:26:27;;;;;;;15.75;12.88;;;;;;;12.40;100.00;101596.75;5251119;28;20029;-77
2023/11/21 11:29:28;;;;;;;16.95;12.48;;;;;;;12.45;100.00;101592.91;5249032;28;20386;-77
2023/11/21 11:32:25;;;;;;;14.43;11.50;;;;;;;12.46;100.00;101589.31;5249609;28;20033;-77
2023/11/21 11:35:06;;;;;;;14.40;11.65;;;;;;;12.31;100.00;101591.41;5252510;28;20482;-77